sensor_id;sensor_type;location;lat;lon;timestamp;P1;durP1;ratioP1;P2;durP2;ratioP2
19521;SDS011;9905;52.126;5.596;2024-02-23T00:00:06;26.10;;;24.77;;
19521;SDS011;9905;52.126;5.596;2024-02-23T00:02:36;26.38;;;25.33;;
19521;SDS011;9905;52.126;5.596;2024-02-23T00:05:03;25.73;;;24.23;;
19521;SDS011;9905;52.126;5.596;2024-02-23T00:07:31;24.58;;;23.38;;
19521;SDS011;9905;52.126;5.596;2024-02-23T00:09:58;24.75;;;23.55;;
19521;SDS011;9905;52.126;5.596;2024-02-23T00:12:25;24.63;;;23.73;;
19521;SDS011;9905;52.126;5.596;2024-02-23T00:14:52;25.38;;;24.38;;
19521;SDS011;9905;52.126;5.596;2024-02-23T00:17:19;23.65;;;22.52;;
19521;SDS011;9905;52.126;5.596;2024-02-23T00:19:47;25.77;;;24.48;;
19521;SDS011;9905;52.126;5.596;2024-02-23T00:22:14;24.40;;;23.15;;
19521;SDS011;9905;52.126;5.596;2024-02-23T00:24:42;24.15;;;22.98;;
19521;SDS011;9905;52.126;5.596;2024-02-23T00:27:09;24.65;;;23.52;;
19521;SDS011;9905;52.126;5.596;2024-02-23T00:29:36;23.85;;;22.95;;
19521;SDS011;9905;52.126;5.596;2024-02-23T00:32:03;23.38;;;22.55;;
19521;SDS011;9905;52.126;5.596;2024-02-23T00:34:30;23.60;;;22.15;;
19521;SDS011;9905;52.126;5.596;2024-02-23T00:36:57;24.90;;;22.90;;
19521;SDS011;9905;52.126;5.596;2024-02-23T00:39:23;24.70;;;22.98;;
19521;SDS011;9905;52.126;5.596;2024-02-23T00:41:52;25.33;;;24.00;;
19521;SDS011;9905;52.126;5.596;2024-02-23T00:44:18;25.73;;;24.15;;
19521;SDS011;9905;52.126;5.596;2024-02-23T00:46:45;26.33;;;24.77;;
19521;SDS011;9905;52.126;5.596;2024-02-23T00:49:12;26.55;;;24.88;;
19521;SDS011;9905;52.126;5.596;2024-02-23T00:51:38;25.77;;;24.27;;
19521;SDS011;9905;52.126;5.596;2024-02-23T00:54:05;26.92;;;25.75;;
19521;SDS011;9905;52.126;5.596;2024-02-23T00:56:32;27.63;;;26.23;;
19521;SDS011;9905;52.126;5.596;2024-02-23T00:59:01;26.02;;;24.83;;
19521;SDS011;9905;52.126;5.596;2024-02-23T01:01:28;26.10;;;24.65;;
19521;SDS011;9905;52.126;5.596;2024-02-23T01:03:55;24.33;;;23.20;;
19521;SDS011;9905;52.126;5.596;2024-02-23T01:06:21;21.80;;;20.77;;
19521;SDS011;9905;52.126;5.596;2024-02-23T01:08:48;21.60;;;20.33;;
19521;SDS011;9905;52.126;5.596;2024-02-23T01:11:15;22.63;;;21.48;;
19521;SDS011;9905;52.126;5.596;2024-02-23T01:13:42;22.30;;;20.88;;
19521;SDS011;9905;52.126;5.596;2024-02-23T01:16:10;21.15;;;19.95;;
19521;SDS011;9905;52.126;5.596;2024-02-23T01:18:37;22.05;;;21.02;;
19521;SDS011;9905;52.126;5.596;2024-02-23T01:21:03;22.55;;;21.42;;
19521;SDS011;9905;52.126;5.596;2024-02-23T01:23:30;22.05;;;20.90;;
19521;SDS011;9905;52.126;5.596;2024-02-23T01:25:57;22.13;;;20.67;;
19521;SDS011;9905;52.126;5.596;2024-02-23T01:28:25;17.77;;;17.13;;
19521;SDS011;9905;52.126;5.596;2024-02-23T01:30:52;17.58;;;16.98;;
19521;SDS011;9905;52.126;5.596;2024-02-23T01:33:20;19.85;;;18.65;;
19521;SDS011;9905;52.126;5.596;2024-02-23T01:35:46;19.92;;;19.15;;
19521;SDS011;9905;52.126;5.596;2024-02-23T01:38:13;19.25;;;18.35;;
19521;SDS011;9905;52.126;5.596;2024-02-23T01:40:44;18.40;;;17.77;;
19521;SDS011;9905;52.126;5.596;2024-02-23T01:43:10;17.75;;;17.17;;
19521;SDS011;9905;52.126;5.596;2024-02-23T01:45:37;18.45;;;17.65;;
19521;SDS011;9905;52.126;5.596;2024-02-23T01:48:04;18.80;;;18.30;;
19521;SDS011;9905;52.126;5.596;2024-02-23T01:50:34;21.85;;;20.83;;
19521;SDS011;9905;52.126;5.596;2024-02-23T01:53:01;22.70;;;21.83;;
19521;SDS011;9905;52.126;5.596;2024-02-23T01:55:29;23.88;;;22.88;;
19521;SDS011;9905;52.126;5.596;2024-02-23T01:57:57;25.80;;;24.55;;
19521;SDS011;9905;52.126;5.596;2024-02-23T02:00:24;26.88;;;25.63;;
19521;SDS011;9905;52.126;5.596;2024-02-23T02:02:51;28.33;;;26.35;;
19521;SDS011;9905;52.126;5.596;2024-02-23T02:05:18;27.65;;;26.45;;
19521;SDS011;9905;52.126;5.596;2024-02-23T02:07:46;29.20;;;27.63;;
19521;SDS011;9905;52.126;5.596;2024-02-23T02:10:15;28.38;;;26.90;;
19521;SDS011;9905;52.126;5.596;2024-02-23T02:12:43;26.95;;;25.75;;
19521;SDS011;9905;52.126;5.596;2024-02-23T02:15:10;28.77;;;27.02;;
19521;SDS011;9905;52.126;5.596;2024-02-23T02:17:36;27.85;;;26.33;;
19521;SDS011;9905;52.126;5.596;2024-02-23T02:20:03;28.35;;;26.70;;
19521;SDS011;9905;52.126;5.596;2024-02-23T02:22:32;27.60;;;26.38;;
19521;SDS011;9905;52.126;5.596;2024-02-23T02:25:01;28.67;;;27.23;;
19521;SDS011;9905;52.126;5.596;2024-02-23T02:27:27;28.33;;;26.73;;
19521;SDS011;9905;52.126;5.596;2024-02-23T02:29:54;25.90;;;24.70;;
19521;SDS011;9905;52.126;5.596;2024-02-23T02:32:21;26.30;;;24.50;;
19521;SDS011;9905;52.126;5.596;2024-02-23T02:34:48;26.05;;;24.33;;
19521;SDS011;9905;52.126;5.596;2024-02-23T02:37:15;24.92;;;23.63;;
19521;SDS011;9905;52.126;5.596;2024-02-23T02:39:42;25.30;;;24.10;;
19521;SDS011;9905;52.126;5.596;2024-02-23T02:42:10;25.05;;;23.55;;
19521;SDS011;9905;52.126;5.596;2024-02-23T02:44:37;24.73;;;23.17;;
19521;SDS011;9905;52.126;5.596;2024-02-23T02:47:04;24.05;;;22.52;;
19521;SDS011;9905;52.126;5.596;2024-02-23T02:49:31;25.05;;;23.50;;
19521;SDS011;9905;52.126;5.596;2024-02-23T02:51:58;24.02;;;22.38;;
19521;SDS011;9905;52.126;5.596;2024-02-23T02:54:24;23.13;;;21.60;;
19521;SDS011;9905;52.126;5.596;2024-02-23T02:56:51;23.20;;;22.00;;
19521;SDS011;9905;52.126;5.596;2024-02-23T02:59:20;21.33;;;20.58;;
19521;SDS011;9905;52.126;5.596;2024-02-23T03:01:47;23.15;;;21.75;;
19521;SDS011;9905;52.126;5.596;2024-02-23T03:04:14;22.75;;;21.85;;
19521;SDS011;9905;52.126;5.596;2024-02-23T03:06:40;23.63;;;22.08;;
19521;SDS011;9905;52.126;5.596;2024-02-23T03:09:07;22.40;;;21.23;;
19521;SDS011;9905;52.126;5.596;2024-02-23T03:11:35;24.02;;;22.50;;
19521;SDS011;9905;52.126;5.596;2024-02-23T03:14:02;22.83;;;21.50;;
19521;SDS011;9905;52.126;5.596;2024-02-23T03:16:30;24.67;;;23.30;;
19521;SDS011;9905;52.126;5.596;2024-02-23T03:18:59;24.48;;;23.23;;
19521;SDS011;9905;52.126;5.596;2024-02-23T03:21:26;24.75;;;23.60;;
19521;SDS011;9905;52.126;5.596;2024-02-23T03:23:52;23.75;;;22.65;;
19521;SDS011;9905;52.126;5.596;2024-02-23T03:26:19;23.10;;;22.00;;
19521;SDS011;9905;52.126;5.596;2024-02-23T03:28:46;22.63;;;21.73;;
19521;SDS011;9905;52.126;5.596;2024-02-23T03:31:13;23.95;;;22.73;;
19521;SDS011;9905;52.126;5.596;2024-02-23T03:33:41;21.88;;;20.95;;
19521;SDS011;9905;52.126;5.596;2024-02-23T03:36:08;23.25;;;21.88;;
19521;SDS011;9905;52.126;5.596;2024-02-23T03:38:35;23.08;;;21.75;;
19521;SDS011;9905;52.126;5.596;2024-02-23T03:41:02;22.00;;;21.15;;
19521;SDS011;9905;52.126;5.596;2024-02-23T03:43:29;23.45;;;21.80;;
19521;SDS011;9905;52.126;5.596;2024-02-23T03:45:55;21.70;;;20.92;;
19521;SDS011;9905;52.126;5.596;2024-02-23T03:48:23;21.70;;;20.80;;
19521;SDS011;9905;52.126;5.596;2024-02-23T03:50:51;21.38;;;20.50;;
19521;SDS011;9905;52.126;5.596;2024-02-23T03:53:19;22.77;;;21.73;;
19521;SDS011;9905;52.126;5.596;2024-02-23T03:55:46;22.83;;;21.55;;
19521;SDS011;9905;52.126;5.596;2024-02-23T03:58:12;21.42;;;20.45;;
19521;SDS011;9905;52.126;5.596;2024-02-23T04:00:39;24.25;;;22.77;;
19521;SDS011;9905;52.126;5.596;2024-02-23T04:03:06;22.35;;;21.25;;
19521;SDS011;9905;52.126;5.596;2024-02-23T04:05:34;23.40;;;22.13;;
19521;SDS011;9905;52.126;5.596;2024-02-23T04:08:02;22.50;;;21.00;;
19521;SDS011;9905;52.126;5.596;2024-02-23T04:10:29;22.27;;;21.15;;
19521;SDS011;9905;52.126;5.596;2024-02-23T04:12:57;20.90;;;19.88;;
19521;SDS011;9905;52.126;5.596;2024-02-23T04:15:24;21.33;;;20.27;;
19521;SDS011;9905;52.126;5.596;2024-02-23T04:17:50;21.60;;;20.48;;
19521;SDS011;9905;52.126;5.596;2024-02-23T04:20:17;22.02;;;21.02;;
19521;SDS011;9905;52.126;5.596;2024-02-23T04:22:44;21.58;;;20.45;;
19521;SDS011;9905;52.126;5.596;2024-02-23T04:25:12;22.45;;;21.55;;
19521;SDS011;9905;52.126;5.596;2024-02-23T04:27:39;23.08;;;22.08;;
19521;SDS011;9905;52.126;5.596;2024-02-23T04:30:06;21.80;;;21.00;;
19521;SDS011;9905;52.126;5.596;2024-02-23T04:32:33;21.63;;;20.67;;
19521;SDS011;9905;52.126;5.596;2024-02-23T04:35:00;22.50;;;21.25;;
19521;SDS011;9905;52.126;5.596;2024-02-23T04:37:27;23.00;;;21.95;;
19521;SDS011;9905;52.126;5.596;2024-02-23T04:39:54;22.70;;;20.92;;
19521;SDS011;9905;52.126;5.596;2024-02-23T04:42:22;22.42;;;21.27;;
19521;SDS011;9905;52.126;5.596;2024-02-23T04:44:48;22.17;;;21.10;;
19521;SDS011;9905;52.126;5.596;2024-02-23T04:47:14;22.70;;;21.77;;
19521;SDS011;9905;52.126;5.596;2024-02-23T04:49:41;23.02;;;21.83;;
19521;SDS011;9905;52.126;5.596;2024-02-23T04:52:08;21.70;;;20.80;;
19521;SDS011;9905;52.126;5.596;2024-02-23T04:54:34;22.52;;;21.40;;
19521;SDS011;9905;52.126;5.596;2024-02-23T04:57:01;24.25;;;22.98;;
19521;SDS011;9905;52.126;5.596;2024-02-23T04:59:30;23.40;;;22.20;;
19521;SDS011;9905;52.126;5.596;2024-02-23T05:01:57;23.75;;;22.60;;
19521;SDS011;9905;52.126;5.596;2024-02-23T05:04:24;24.55;;;23.08;;
19521;SDS011;9905;52.126;5.596;2024-02-23T05:06:51;23.83;;;22.65;;
19521;SDS011;9905;52.126;5.596;2024-02-23T05:09:18;24.73;;;23.25;;
19521;SDS011;9905;52.126;5.596;2024-02-23T05:11:45;23.10;;;22.10;;
19521;SDS011;9905;52.126;5.596;2024-02-23T05:14:12;23.83;;;22.88;;
19521;SDS011;9905;52.126;5.596;2024-02-23T05:16:41;25.08;;;23.33;;
19521;SDS011;9905;52.126;5.596;2024-02-23T05:19:08;23.92;;;22.73;;
19521;SDS011;9905;52.126;5.596;2024-02-23T05:21:35;22.80;;;21.85;;
19521;SDS011;9905;52.126;5.596;2024-02-23T05:24:02;23.33;;;22.20;;
19521;SDS011;9905;52.126;5.596;2024-02-23T05:26:31;22.67;;;21.35;;
19521;SDS011;9905;52.126;5.596;2024-02-23T05:28:57;22.35;;;21.52;;
19521;SDS011;9905;52.126;5.596;2024-02-23T05:31:28;23.27;;;22.05;;
19521;SDS011;9905;52.126;5.596;2024-02-23T05:34:12;21.88;;;20.55;;
19521;SDS011;9905;52.126;5.596;2024-02-23T05:36:39;20.88;;;19.88;;
19521;SDS011;9905;52.126;5.596;2024-02-23T05:39:06;21.38;;;20.33;;
19521;SDS011;9905;52.126;5.596;2024-02-23T05:41:34;21.38;;;20.27;;
19521;SDS011;9905;52.126;5.596;2024-02-23T05:44:01;19.27;;;18.30;;
19521;SDS011;9905;52.126;5.596;2024-02-23T05:46:30;21.33;;;20.02;;
19521;SDS011;9905;52.126;5.596;2024-02-23T05:48:58;21.35;;;19.90;;
19521;SDS011;9905;52.126;5.596;2024-02-23T05:51:25;21.73;;;20.05;;
19521;SDS011;9905;52.126;5.596;2024-02-23T05:53:54;20.50;;;19.42;;
19521;SDS011;9905;52.126;5.596;2024-02-23T05:56:21;19.73;;;18.85;;
19521;SDS011;9905;52.126;5.596;2024-02-23T05:58:48;19.73;;;18.52;;
19521;SDS011;9905;52.126;5.596;2024-02-23T06:01:15;17.45;;;16.33;;
19521;SDS011;9905;52.126;5.596;2024-02-23T06:03:42;18.40;;;17.30;;
19521;SDS011;9905;52.126;5.596;2024-02-23T06:06:10;18.33;;;17.20;;
19521;SDS011;9905;52.126;5.596;2024-02-23T06:08:37;18.30;;;17.63;;
19521;SDS011;9905;52.126;5.596;2024-02-23T06:11:04;18.05;;;17.35;;
19521;SDS011;9905;52.126;5.596;2024-02-23T06:13:31;19.08;;;17.75;;
19521;SDS011;9905;52.126;5.596;2024-02-23T06:15:58;17.00;;;16.10;;
19521;SDS011;9905;52.126;5.596;2024-02-23T06:18:25;17.75;;;16.75;;
19521;SDS011;9905;52.126;5.596;2024-02-23T06:20:51;17.67;;;16.48;;
19521;SDS011;9905;52.126;5.596;2024-02-23T06:23:19;17.10;;;16.35;;
19521;SDS011;9905;52.126;5.596;2024-02-23T06:25:47;17.02;;;16.08;;
19521;SDS011;9905;52.126;5.596;2024-02-23T06:28:13;17.85;;;16.90;;
19521;SDS011;9905;52.126;5.596;2024-02-23T06:30:40;17.85;;;16.90;;
19521;SDS011;9905;52.126;5.596;2024-02-23T06:33:07;16.55;;;15.77;;
19521;SDS011;9905;52.126;5.596;2024-02-23T06:35:34;16.45;;;15.70;;
19521;SDS011;9905;52.126;5.596;2024-02-23T06:38:00;16.45;;;15.50;;
19521;SDS011;9905;52.126;5.596;2024-02-23T06:40:28;16.48;;;15.55;;
19521;SDS011;9905;52.126;5.596;2024-02-23T06:42:55;15.80;;;14.93;;
19521;SDS011;9905;52.126;5.596;2024-02-23T06:45:22;15.30;;;14.40;;
19521;SDS011;9905;52.126;5.596;2024-02-23T06:47:50;15.48;;;14.77;;
19521;SDS011;9905;52.126;5.596;2024-02-23T06:50:17;16.10;;;14.80;;
19521;SDS011;9905;52.126;5.596;2024-02-23T06:52:44;15.15;;;14.43;;
19521;SDS011;9905;52.126;5.596;2024-02-23T06:55:13;15.40;;;14.68;;
19521;SDS011;9905;52.126;5.596;2024-02-23T06:57:41;15.02;;;14.32;;
19521;SDS011;9905;52.126;5.596;2024-02-23T07:00:08;15.50;;;14.48;;
19521;SDS011;9905;52.126;5.596;2024-02-23T07:02:36;14.70;;;14.15;;
19521;SDS011;9905;52.126;5.596;2024-02-23T07:05:03;16.05;;;15.25;;
19521;SDS011;9905;52.126;5.596;2024-02-23T07:07:30;16.08;;;15.40;;
19521;SDS011;9905;52.126;5.596;2024-02-23T07:09:58;16.02;;;15.23;;
19521;SDS011;9905;52.126;5.596;2024-02-23T07:12:25;15.73;;;14.73;;
19521;SDS011;9905;52.126;5.596;2024-02-23T07:14:55;14.68;;;14.10;;
19521;SDS011;9905;52.126;5.596;2024-02-23T07:17:22;15.35;;;14.75;;
19521;SDS011;9905;52.126;5.596;2024-02-23T07:19:49;15.32;;;14.55;;
19521;SDS011;9905;52.126;5.596;2024-02-23T07:22:17;15.02;;;13.88;;
19521;SDS011;9905;52.126;5.596;2024-02-23T07:24:45;15.40;;;14.23;;
19521;SDS011;9905;52.126;5.596;2024-02-23T07:27:12;14.35;;;13.60;;
19521;SDS011;9905;52.126;5.596;2024-02-23T07:29:39;15.05;;;14.32;;
19521;SDS011;9905;52.126;5.596;2024-02-23T07:32:07;14.20;;;13.38;;
19521;SDS011;9905;52.126;5.596;2024-02-23T07:34:33;13.48;;;12.52;;
19521;SDS011;9905;52.126;5.596;2024-02-23T07:37:00;13.82;;;12.90;;
19521;SDS011;9905;52.126;5.596;2024-02-23T07:39:27;13.57;;;12.95;;
19521;SDS011;9905;52.126;5.596;2024-02-23T07:41:54;14.80;;;13.73;;
19521;SDS011;9905;52.126;5.596;2024-02-23T07:44:21;12.88;;;12.18;;
19521;SDS011;9905;52.126;5.596;2024-02-23T07:46:48;12.13;;;11.68;;
19521;SDS011;9905;52.126;5.596;2024-02-23T07:49:18;11.35;;;10.77;;
19521;SDS011;9905;52.126;5.596;2024-02-23T07:51:45;11.43;;;10.77;;
19521;SDS011;9905;52.126;5.596;2024-02-23T07:54:12;12.70;;;11.57;;
19521;SDS011;9905;52.126;5.596;2024-02-23T07:56:38;13.15;;;12.43;;
19521;SDS011;9905;52.126;5.596;2024-02-23T07:59:05;12.77;;;11.88;;
19521;SDS011;9905;52.126;5.596;2024-02-23T08:01:32;12.10;;;11.48;;
19521;SDS011;9905;52.126;5.596;2024-02-23T08:03:59;11.43;;;10.82;;
19521;SDS011;9905;52.126;5.596;2024-02-23T08:06:27;11.55;;;11.05;;
19521;SDS011;9905;52.126;5.596;2024-02-23T08:08:53;11.05;;;10.57;;
19521;SDS011;9905;52.126;5.596;2024-02-23T08:11:20;11.55;;;11.10;;
19521;SDS011;9905;52.126;5.596;2024-02-23T08:13:47;10.38;;;9.98;;
19521;SDS011;9905;52.126;5.596;2024-02-23T08:16:15;9.93;;;9.10;;
19521;SDS011;9905;52.126;5.596;2024-02-23T08:18:42;10.23;;;9.68;;
19521;SDS011;9905;52.126;5.596;2024-02-23T08:21:09;10.27;;;9.63;;
19521;SDS011;9905;52.126;5.596;2024-02-23T08:23:37;10.23;;;9.32;;
19521;SDS011;9905;52.126;5.596;2024-02-23T08:26:05;10.43;;;9.85;;
19521;SDS011;9905;52.126;5.596;2024-02-23T08:28:32;10.15;;;9.38;;
19521;SDS011;9905;52.126;5.596;2024-02-23T08:30:59;10.80;;;9.85;;
19521;SDS011;9905;52.126;5.596;2024-02-23T08:33:25;9.82;;;9.05;;
19521;SDS011;9905;52.126;5.596;2024-02-23T08:35:52;9.23;;;8.60;;
19521;SDS011;9905;52.126;5.596;2024-02-23T08:38:19;9.35;;;8.52;;
19521;SDS011;9905;52.126;5.596;2024-02-23T08:40:47;9.75;;;8.93;;
19521;SDS011;9905;52.126;5.596;2024-02-23T08:43:14;9.90;;;9.23;;
19521;SDS011;9905;52.126;5.596;2024-02-23T08:45:41;9.85;;;8.98;;
19521;SDS011;9905;52.126;5.596;2024-02-23T08:48:08;9.35;;;8.93;;
19521;SDS011;9905;52.126;5.596;2024-02-23T08:50:34;9.55;;;8.93;;
19521;SDS011;9905;52.126;5.596;2024-02-23T08:53:03;8.80;;;8.40;;
19521;SDS011;9905;52.126;5.596;2024-02-23T08:55:30;8.95;;;8.30;;
19521;SDS011;9905;52.126;5.596;2024-02-23T08:57:59;9.27;;;8.55;;
19521;SDS011;9905;52.126;5.596;2024-02-23T09:00:26;8.70;;;7.90;;
19521;SDS011;9905;52.126;5.596;2024-02-23T09:02:53;8.68;;;8.02;;
19521;SDS011;9905;52.126;5.596;2024-02-23T09:05:20;9.05;;;8.50;;
19521;SDS011;9905;52.126;5.596;2024-02-23T09:07:47;8.90;;;8.57;;
19521;SDS011;9905;52.126;5.596;2024-02-23T09:10:13;8.48;;;7.82;;
19521;SDS011;9905;52.126;5.596;2024-02-23T09:12:40;8.85;;;8.10;;
19521;SDS011;9905;52.126;5.596;2024-02-23T09:15:09;8.30;;;7.90;;
19521;SDS011;9905;52.126;5.596;2024-02-23T09:17:36;8.13;;;7.43;;
19521;SDS011;9905;52.126;5.596;2024-02-23T09:20:03;8.00;;;7.50;;
19521;SDS011;9905;52.126;5.596;2024-02-23T09:22:30;9.13;;;8.52;;
19521;SDS011;9905;52.126;5.596;2024-02-23T09:24:57;7.95;;;7.53;;
19521;SDS011;9905;52.126;5.596;2024-02-23T09:27:23;8.27;;;7.68;;
19521;SDS011;9905;52.126;5.596;2024-02-23T09:29:50;8.90;;;8.48;;
19521;SDS011;9905;52.126;5.596;2024-02-23T09:32:18;8.68;;;7.88;;
19521;SDS011;9905;52.126;5.596;2024-02-23T09:34:45;8.48;;;7.90;;
19521;SDS011;9905;52.126;5.596;2024-02-23T09:37:11;8.55;;;7.90;;
19521;SDS011;9905;52.126;5.596;2024-02-23T09:39:38;10.57;;;9.52;;
19521;SDS011;9905;52.126;5.596;2024-02-23T09:42:06;8.50;;;8.00;;
19521;SDS011;9905;52.126;5.596;2024-02-23T09:44:35;10.13;;;9.07;;
19521;SDS011;9905;52.126;5.596;2024-02-23T09:47:03;9.23;;;8.57;;
19521;SDS011;9905;52.126;5.596;2024-02-23T09:49:37;8.70;;;8.15;;
19521;SDS011;9905;52.126;5.596;2024-02-23T09:52:06;8.25;;;7.57;;
19521;SDS011;9905;52.126;5.596;2024-02-23T09:54:34;7.38;;;6.93;;
19521;SDS011;9905;52.126;5.596;2024-02-23T09:57:01;7.95;;;7.30;;
19521;SDS011;9905;52.126;5.596;2024-02-23T09:59:32;7.40;;;6.80;;
19521;SDS011;9905;52.126;5.596;2024-02-23T10:02:00;8.27;;;7.80;;
19521;SDS011;9905;52.126;5.596;2024-02-23T10:04:29;8.10;;;7.57;;
19521;SDS011;9905;52.126;5.596;2024-02-23T10:06:58;8.73;;;8.13;;
19521;SDS011;9905;52.126;5.596;2024-02-23T10:09:24;7.72;;;7.32;;
19521;SDS011;9905;52.126;5.596;2024-02-23T10:11:52;7.85;;;7.32;;
19521;SDS011;9905;52.126;5.596;2024-02-23T10:14:19;8.48;;;7.95;;
19521;SDS011;9905;52.126;5.596;2024-02-23T10:16:46;7.70;;;7.40;;
19521;SDS011;9905;52.126;5.596;2024-02-23T10:19:13;7.30;;;6.95;;
19521;SDS011;9905;52.126;5.596;2024-02-23T10:21:40;8.63;;;8.13;;
19521;SDS011;9905;52.126;5.596;2024-02-23T10:24:08;7.93;;;7.47;;
19521;SDS011;9905;52.126;5.596;2024-02-23T10:26:36;7.70;;;7.20;;
19521;SDS011;9905;52.126;5.596;2024-02-23T10:29:02;7.88;;;7.57;;
19521;SDS011;9905;52.126;5.596;2024-02-23T10:31:29;7.82;;;7.43;;
19521;SDS011;9905;52.126;5.596;2024-02-23T10:34:01;7.85;;;7.55;;
19521;SDS011;9905;52.126;5.596;2024-02-23T10:36:34;8.27;;;7.32;;
19521;SDS011;9905;52.126;5.596;2024-02-23T10:39:03;8.02;;;7.38;;
19521;SDS011;9905;52.126;5.596;2024-02-23T10:41:34;8.00;;;7.63;;
19521;SDS011;9905;52.126;5.596;2024-02-23T10:44:02;8.00;;;7.28;;
19521;SDS011;9905;52.126;5.596;2024-02-23T10:46:31;7.22;;;6.80;;
19521;SDS011;9905;52.126;5.596;2024-02-23T10:48:58;8.20;;;7.70;;
19521;SDS011;9905;52.126;5.596;2024-02-23T10:51:27;7.68;;;6.97;;
19521;SDS011;9905;52.126;5.596;2024-02-23T10:53:54;7.50;;;7.10;;
19521;SDS011;9905;52.126;5.596;2024-02-23T10:56:21;8.30;;;7.95;;
19521;SDS011;9905;52.126;5.596;2024-02-23T10:58:50;8.02;;;7.43;;
19521;SDS011;9905;52.126;5.596;2024-02-23T11:01:17;8.73;;;8.18;;
19521;SDS011;9905;52.126;5.596;2024-02-23T11:03:45;8.80;;;8.38;;
19521;SDS011;9905;52.126;5.596;2024-02-23T11:06:15;9.15;;;8.30;;
19521;SDS011;9905;52.126;5.596;2024-02-23T11:08:46;8.05;;;7.63;;
19521;SDS011;9905;52.126;5.596;2024-02-23T11:11:15;8.48;;;8.07;;
19521;SDS011;9905;52.126;5.596;2024-02-23T11:13:43;8.02;;;7.53;;
19521;SDS011;9905;52.126;5.596;2024-02-23T11:16:22;8.85;;;8.25;;
19521;SDS011;9905;52.126;5.596;2024-02-23T11:18:49;7.35;;;7.15;;
19521;SDS011;9905;52.126;5.596;2024-02-23T11:21:33;8.52;;;8.02;;
19521;SDS011;9905;52.126;5.596;2024-02-23T11:24:02;8.35;;;7.82;;
19521;SDS011;9905;52.126;5.596;2024-02-23T11:26:29;8.25;;;7.85;;
19521;SDS011;9905;52.126;5.596;2024-02-23T11:28:58;7.88;;;7.32;;
19521;SDS011;9905;52.126;5.596;2024-02-23T11:31:36;8.07;;;7.50;;
19521;SDS011;9905;52.126;5.596;2024-02-23T11:34:10;7.80;;;7.20;;
19521;SDS011;9905;52.126;5.596;2024-02-23T11:36:38;7.65;;;7.35;;
19521;SDS011;9905;52.126;5.596;2024-02-23T11:39:05;6.85;;;6.60;;
19521;SDS011;9905;52.126;5.596;2024-02-23T11:41:32;8.60;;;8.13;;
19521;SDS011;9905;52.126;5.596;2024-02-23T11:43:58;8.65;;;8.13;;
19521;SDS011;9905;52.126;5.596;2024-02-23T11:46:25;8.32;;;7.72;;
19521;SDS011;9905;52.126;5.596;2024-02-23T11:48:53;7.20;;;6.88;;
19521;SDS011;9905;52.126;5.596;2024-02-23T11:51:20;8.10;;;7.38;;
19521;SDS011;9905;52.126;5.596;2024-02-23T11:53:48;8.15;;;7.80;;
19521;SDS011;9905;52.126;5.596;2024-02-23T11:56:15;6.55;;;6.35;;
19521;SDS011;9905;52.126;5.596;2024-02-23T11:58:43;7.93;;;7.18;;
19521;SDS011;9905;52.126;5.596;2024-02-23T12:01:10;6.78;;;6.25;;
19521;SDS011;9905;52.126;5.596;2024-02-23T12:03:37;6.55;;;6.25;;
19521;SDS011;9905;52.126;5.596;2024-02-23T12:06:06;6.65;;;6.10;;
19521;SDS011;9905;52.126;5.596;2024-02-23T12:08:34;7.55;;;6.97;;
19521;SDS011;9905;52.126;5.596;2024-02-23T12:11:03;7.00;;;6.70;;
19521;SDS011;9905;52.126;5.596;2024-02-23T12:13:32;7.00;;;6.80;;
19521;SDS011;9905;52.126;5.596;2024-02-23T12:15:59;6.50;;;5.93;;
19521;SDS011;9905;52.126;5.596;2024-02-23T12:18:27;6.75;;;6.32;;
19521;SDS011;9905;52.126;5.596;2024-02-23T12:20:58;7.75;;;6.60;;
19521;SDS011;9905;52.126;5.596;2024-02-23T12:23:27;8.43;;;7.72;;
19521;SDS011;9905;52.126;5.596;2024-02-23T12:26:04;6.07;;;5.63;;
19521;SDS011;9905;52.126;5.596;2024-02-23T12:28:31;6.57;;;6.30;;
19521;SDS011;9905;52.126;5.596;2024-02-23T12:31:01;6.28;;;5.97;;
19521;SDS011;9905;52.126;5.596;2024-02-23T12:33:29;6.85;;;6.32;;
19521;SDS011;9905;52.126;5.596;2024-02-23T12:35:58;6.72;;;6.32;;
19521;SDS011;9905;52.126;5.596;2024-02-23T12:38:25;6.20;;;5.80;;
19521;SDS011;9905;52.126;5.596;2024-02-23T12:40:53;7.10;;;6.53;;
19521;SDS011;9905;52.126;5.596;2024-02-23T12:43:20;8.57;;;7.28;;
19521;SDS011;9905;52.126;5.596;2024-02-23T12:45:49;6.80;;;6.20;;
19521;SDS011;9905;52.126;5.596;2024-02-23T12:48:16;6.50;;;6.00;;
19521;SDS011;9905;52.126;5.596;2024-02-23T12:50:43;6.45;;;6.15;;
19521;SDS011;9905;52.126;5.596;2024-02-23T12:53:10;6.72;;;6.32;;
19521;SDS011;9905;52.126;5.596;2024-02-23T12:55:57;7.85;;;6.13;;
19521;SDS011;9905;52.126;5.596;2024-02-23T12:58:24;8.75;;;8.15;;
19521;SDS011;9905;52.126;5.596;2024-02-23T13:00:50;6.28;;;5.97;;
19521;SDS011;9905;52.126;5.596;2024-02-23T13:03:17;5.90;;;5.57;;
19521;SDS011;9905;52.126;5.596;2024-02-23T13:05:44;6.45;;;6.15;;
19521;SDS011;9905;52.126;5.596;2024-02-23T13:08:12;6.05;;;5.55;;
19521;SDS011;9905;52.126;5.596;2024-02-23T13:10:38;5.93;;;5.60;;
19521;SDS011;9905;52.126;5.596;2024-02-23T13:13:07;5.63;;;5.32;;
19521;SDS011;9905;52.126;5.596;2024-02-23T13:15:33;6.82;;;6.47;;
19521;SDS011;9905;52.126;5.596;2024-02-23T13:18:01;5.75;;;5.40;;
19521;SDS011;9905;52.126;5.596;2024-02-23T13:20:28;5.88;;;5.47;;
19521;SDS011;9905;52.126;5.596;2024-02-23T13:22:55;5.45;;;5.10;;
19521;SDS011;9905;52.126;5.596;2024-02-23T13:25:22;6.03;;;5.72;;
19521;SDS011;9905;52.126;5.596;2024-02-23T13:27:48;6.05;;;5.43;;
19521;SDS011;9905;52.126;5.596;2024-02-23T13:30:16;5.68;;;5.22;;
19521;SDS011;9905;52.126;5.596;2024-02-23T13:32:43;4.88;;;4.68;;
19521;SDS011;9905;52.126;5.596;2024-02-23T13:35:10;4.80;;;4.50;;
19521;SDS011;9905;52.126;5.596;2024-02-23T13:37:39;5.82;;;5.63;;
19521;SDS011;9905;52.126;5.596;2024-02-23T13:40:06;5.40;;;5.13;;
19521;SDS011;9905;52.126;5.596;2024-02-23T13:42:34;5.18;;;4.88;;
19521;SDS011;9905;52.126;5.596;2024-02-23T13:45:03;6.00;;;5.50;;
19521;SDS011;9905;52.126;5.596;2024-02-23T13:47:32;5.80;;;5.40;;
19521;SDS011;9905;52.126;5.596;2024-02-23T13:49:59;5.95;;;5.55;;
19521;SDS011;9905;52.126;5.596;2024-02-23T13:52:26;5.25;;;4.90;;
19521;SDS011;9905;52.126;5.596;2024-02-23T13:54:52;5.63;;;5.00;;
19521;SDS011;9905;52.126;5.596;2024-02-23T13:57:19;5.90;;;5.60;;
19521;SDS011;9905;52.126;5.596;2024-02-23T13:59:46;5.40;;;5.07;;
19521;SDS011;9905;52.126;5.596;2024-02-23T14:02:13;4.78;;;4.57;;
19521;SDS011;9905;52.126;5.596;2024-02-23T14:04:41;6.43;;;5.25;;
19521;SDS011;9905;52.126;5.596;2024-02-23T14:07:10;5.07;;;4.70;;
19521;SDS011;9905;52.126;5.596;2024-02-23T14:09:36;5.28;;;5.07;;
19521;SDS011;9905;52.126;5.596;2024-02-23T14:12:03;5.88;;;4.40;;
19521;SDS011;9905;52.126;5.596;2024-02-23T14:14:30;4.72;;;4.50;;
19521;SDS011;9905;52.126;5.596;2024-02-23T14:16:57;5.93;;;5.20;;
19521;SDS011;9905;52.126;5.596;2024-02-23T14:19:24;5.32;;;5.00;;
19521;SDS011;9905;52.126;5.596;2024-02-23T14:21:52;4.75;;;4.45;;
19521;SDS011;9905;52.126;5.596;2024-02-23T14:24:19;4.47;;;4.38;;
19521;SDS011;9905;52.126;5.596;2024-02-23T14:26:45;4.85;;;4.55;;
19521;SDS011;9905;52.126;5.596;2024-02-23T14:29:12;4.90;;;4.50;;
19521;SDS011;9905;52.126;5.596;2024-02-23T14:31:39;5.07;;;4.68;;
19521;SDS011;9905;52.126;5.596;2024-02-23T14:34:05;5.20;;;4.78;;
19521;SDS011;9905;52.126;5.596;2024-02-23T14:36:32;5.43;;;5.05;;
19521;SDS011;9905;52.126;5.596;2024-02-23T14:39:01;6.20;;;4.72;;
19521;SDS011;9905;52.126;5.596;2024-02-23T14:41:29;4.85;;;4.68;;
19521;SDS011;9905;52.126;5.596;2024-02-23T14:43:56;5.07;;;4.65;;
19521;SDS011;9905;52.126;5.596;2024-02-23T14:46:22;5.25;;;4.78;;